Main page
METAR-TAF:

METAR-TAF

Airports :

Chios, Greece

Chios Island National Airport

latitude: 38-20N, longitude: 026-08E, elevation: 5 m

Current weather observation

The report was made 4 hours and 23 minutes ago, at 18:50 UTC
Wind 4 kt from the Southwest
Temperature 6°C
Humidity 87%
Pressure 1016 hPa
Visibility 10 km or more
no clouds below 1500 m and no cumulonimbus

METAR: LGHI 191850Z 22004KT CAVOK 06/04 Q1016

Time: 01:13 (23:13 UTC)

Forecast

The report was made 3 hours and 13 minutes ago, at 20:00 UTC
Forecast valid from 19 at 21 UTC to 20 at 06 UTC
Wind 15 kt from the South
Visibility 10 km or more
Few clouds at a height of 2500 ft

TAF: LGHI 192000Z 1921/2006 17015KT 9999 FEW025

Weather observations and forecasts of more than 4000 airports (METAR and TAF reports).

The available stations are represented by yellow and red dots on the map.

Hover mouse over dot to see the name of the station.

Then click to see weather observations and forecasts.

To change the map : click on the green buttons with a black cross to zoom in, on the green button with a dash to zoom out, or on the green arrows for adjacent maps.


METAR-TAF: